Time;durP1;ratioP1;P1;durP2;ratioP2;P2;SDS_P1;SDS_P2;PMS_P1;PMS_P2;Temp;Humidity;BMP_temperature;BMP_pressure;BME280_temperature;BME280_humidity;BME280_pressure;Samples;Min_cycle;Max_cycle;Signal;HPM_P1;HPM_P2
2023/04/30 00:00:07;;;;;;;19.30;13.20;;;;;;;8.20;80.01;93138.31;514968;28;1235;-48
2023/04/30 00:00:22;;;;;;;18.92;13.68;;;;;;;8.22;80.03;93135.75;518140;28;846;-47
2023/04/30 00:00:38;;;;;;;15.85;13.18;;;;;;;8.23;79.85;93135.19;518049;28;856;-47
2023/04/30 00:00:53;;;;;;;15.23;12.73;;;;;;;8.25;79.58;93140.91;515081;28;1402;-47
2023/04/30 00:01:08;;;;;;;15.87;12.23;;;;;;;8.23;79.53;93132.44;514996;28;876;-49
2023/04/30 00:01:24;;;;;;;15.45;11.68;;;;;;;8.24;79.42;93136.69;515165;28;1214;-49
2023/04/30 00:01:39;;;;;;;15.70;11.63;;;;;;;8.25;79.25;93140.91;514005;28;896;-47
2023/04/30 00:01:55;;;;;;;15.40;12.00;;;;;;;8.24;79.14;93133.94;513703;28;1188;-48
2023/04/30 00:02:10;;;;;;;14.05;12.07;;;;;;;8.25;79.03;93137.44;515799;28;1235;-48
2023/04/30 00:02:25;;;;;;;14.33;12.20;;;;;;;8.23;78.90;93135.19;515026;28;1930;-48
2023/04/30 00:02:41;;;;;;;15.47;12.53;;;;;;;8.23;78.83;93140.69;514112;28;793;-48
2023/04/30 00:02:56;;;;;;;18.30;12.80;;;;;;;8.22;78.81;93146.75;513832;28;1211;-48
2023/04/30 00:03:11;;;;;;;18.43;12.97;;;;;;;8.22;78.87;93142.00;513938;28;843;-47
2023/04/30 00:03:27;;;;;;;16.58;12.75;;;;;;;8.22;78.62;93142.00;514252;28;1365;-48
2023/04/30 00:03:42;;;;;;;15.43;12.17;;;;;;;8.21;78.78;93139.75;514018;28;813;-47
2023/04/30 00:03:57;;;;;;;15.10;12.17;;;;;;;8.16;78.79;93135.91;513837;28;1231;-48
2023/04/30 00:04:13;;;;;;;17.13;12.32;;;;;;;8.11;78.61;93134.03;514014;28;931;-48
2023/04/30 00:04:28;;;;;;;17.13;12.53;;;;;;;8.06;78.74;93132.16;514181;28;1382;-48
2023/04/30 00:04:44;;;;;;;20.17;12.97;;;;;;;8.04;78.83;93139.47;513982;28;838;-48
2023/04/30 00:04:59;;;;;;;19.33;12.73;;;;;;;8.01;79.10;93141.28;515672;28;1337;-47
2023/04/30 00:05:15;;;;;;;14.77;12.43;;;;;;;7.99;79.11;93140.38;515721;28;1191;-48
2023/04/30 00:05:30;;;;;;;16.25;13.32;;;;;;;7.98;79.32;93138.88;517927;28;1265;-48
2023/04/30 00:05:49;;;;;;;17.30;13.50;;;;;;;7.97;79.31;93135.41;517992;28;1206;-47
2023/04/30 00:06:05;;;;;;;23.38;12.90;;;;;;;8.00;79.22;93139.09;518062;28;864;-47
2023/04/30 00:06:20;;;;;;;22.58;12.95;;;;;;;8.01;79.57;93144.03;518105;28;794;-48
2023/04/30 00:06:35;;;;;;;18.00;12.73;;;;;;;7.99;79.31;93143.84;517889;28;1408;-48
2023/04/30 00:06:51;;;;;;;17.15;12.80;;;;;;;7.95;79.59;93139.97;516396;28;1656;-48
2023/04/30 00:07:07;;;;;;;17.17;12.80;;;;;;;7.93;79.63;93132.25;516707;28;862;-49
2023/04/30 00:07:22;;;;;;;18.20;12.57;;;;;;;7.96;79.49;93142.19;517476;28;1166;-48
2023/04/30 00:07:41;;;;;;;17.30;12.90;;;;;;;7.99;79.87;93140.38;517130;28;873;-49
2023/04/30 00:07:56;;;;;;;19.17;13.32;;;;;;;8.03;79.77;93143.50;515978;28;906;-47
2023/04/30 00:08:11;;;;;;;20.00;12.83;;;;;;;8.02;79.47;93134.53;514503;28;1202;-48
2023/04/30 00:08:27;;;;;;;17.97;13.00;;;;;;;8.02;79.64;93136.53;514107;28;826;-48
2023/04/30 00:08:42;;;;;;;15.83;12.70;;;;;;;8.05;79.55;93143.72;514114;28;880;-47
2023/04/30 00:08:58;;;;;;;15.80;12.67;;;;;;;8.05;79.30;93135.47;514037;28;960;-49
2023/04/30 00:09:13;;;;;;;17.48;13.18;;;;;;;8.06;79.11;93140.41;513878;28;877;-48
2023/04/30 00:09:28;;;;;;;17.00;13.23;;;;;;;8.07;79.25;93138.41;515467;28;1200;-48
2023/04/30 00:09:44;;;;;;;17.67;13.67;;;;;;;8.07;79.10;93135.66;515928;28;924;-48
2023/04/30 00:09:59;;;;;;;18.15;14.05;;;;;;;8.09;78.97;93133.09;515775;28;1155;-48
2023/04/30 00:10:15;;;;;;;17.00;13.33;;;;;;;8.06;78.77;93134.91;515991;28;960;-48
2023/04/30 00:10:30;;;;;;;17.38;12.75;;;;;;;7.99;78.67;93143.84;516115;28;1151;-48
2023/04/30 00:10:45;;;;;;;19.03;12.67;;;;;;;7.80;78.65;93137.09;517815;28;1237;-49
2023/04/30 00:11:01;;;;;;;18.73;12.60;;;;;;;7.67;79.08;93134.44;515122;28;891;-48
2023/04/30 00:11:16;;;;;;;15.75;12.25;;;;;;;7.54;79.28;93141.47;514038;28;915;-47
2023/04/30 00:11:31;;;;;;;15.67;12.03;;;;;;;7.45;79.54;93144.69;514115;28;750;-47
2023/04/30 00:11:47;;;;;;;14.47;11.80;;;;;;;7.33;79.92;93140.75;514096;28;822;-48
2023/04/30 00:12:02;;;;;;;16.27;12.13;;;;;;;7.27;80.19;93137.41;515590;28;941;-47
2023/04/30 00:12:18;;;;;;;16.73;12.50;;;;;;;7.10;80.54;93115.09;515877;28;2420;-48
2023/04/30 00:12:33;;;;;;;15.02;12.52;;;;;;;7.22;80.93;93140.25;516135;28;845;-48
2023/04/30 00:12:48;;;;;;;14.97;12.37;;;;;;;7.20;81.07;93134.56;516088;28;801;-47
2023/04/30 00:13:04;;;;;;;15.30;12.40;;;;;;;7.18;81.49;93140.59;515998;28;1188;-49
2023/04/30 00:13:19;;;;;;;15.25;12.32;;;;;;;7.20;81.47;93138.06;516025;28;1153;-47
2023/04/30 00:13:35;;;;;;;15.63;11.73;;;;;;;7.20;81.49;93132.56;515948;28;1099;-47
2023/04/30 00:13:50;;;;;;;17.45;12.40;;;;;;;7.11;81.77;93116.53;516145;28;1018;-47
2023/04/30 00:14:06;;;;;;;17.60;13.63;;;;;;;6.84;81.43;93074.03;515958;28;1024;-48
2023/04/30 00:14:21;;;;;;;18.95;13.55;;;;;;;7.33;81.49;93138.00;515932;28;1676;-47
2023/04/30 00:14:37;;;;;;;19.23;13.43;;;;;;;7.40;81.37;93139.34;516011;28;1666;-48
2023/04/30 00:14:54;;;;;;;17.55;13.18;;;;;;;7.45;81.31;93136.44;516067;28;935;-47
2023/04/30 00:15:10;;;;;;;19.33;12.88;;;;;;;7.53;80.98;93139.28;515940;28;1369;-47
2023/04/30 00:15:25;;;;;;;22.30;12.93;;;;;;;7.58;80.71;93133.63;515769;28;1138;-49
2023/04/30 00:15:41;;;;;;;28.33;12.77;;;;;;;7.58;80.25;93132.88;516064;28;829;-48
2023/04/30 00:15:56;;;;;;;23.00;12.70;;;;;;;7.70;80.37;93138.84;515758;28;1162;-48
2023/04/30 00:16:12;;;;;;;15.80;12.60;;;;;;;7.74;79.90;93131.00;515943;28;872;-48
2023/04/30 00:16:27;;;;;;;15.07;12.20;;;;;;;7.79;79.84;93139.13;516494;28;1242;-48
2023/04/30 00:16:43;;;;;;;15.55;11.82;;;;;;;7.83;79.52;93136.03;517969;28;855;-47
2023/04/30 00:16:58;;;;;;;16.90;12.23;;;;;;;7.84;79.24;93132.72;517950;28;897;-48
2023/04/30 00:17:14;;;;;;;16.33;12.27;;;;;;;7.85;79.24;93128.72;517620;28;1138;-47
2023/04/30 00:17:30;;;;;;;14.40;11.82;;;;;;;7.92;79.02;93138.31;516070;28;937;-47
2023/04/30 00:17:45;;;;;;;14.43;11.88;;;;;;;7.95;78.98;93137.22;516016;28;852;-48
2023/04/30 00:18:01;;;;;;;17.23;12.23;;;;;;;7.94;78.59;93133.75;515998;28;890;-48
2023/04/30 00:18:17;;;;;;;17.55;12.13;;;;;;;7.84;78.76;93132.03;514203;28;902;-48
2023/04/30 00:18:32;;;;;;;17.23;12.07;;;;;;;7.84;78.87;93132.03;515291;28;1258;-47
2023/04/30 00:18:47;;;;;;;14.82;11.73;;;;;;;7.83;78.84;93134.03;516016;28;1103;-48
2023/04/30 00:19:03;;;;;;;13.03;11.00;;;;;;;7.85;78.93;93134.22;516107;28;769;-47
2023/04/30 00:19:18;;;;;;;14.40;10.70;;;;;;;7.86;78.84;93135.69;514697;28;794;-48
2023/04/30 00:19:33;;;;;;;16.43;11.30;;;;;;;7.89;78.81;93136.63;514103;28;1134;-47
2023/04/30 00:19:49;;;;;;;15.83;11.47;;;;;;;7.89;78.85;93134.63;514094;28;973;-47
2023/04/30 00:20:06;;;;;;;15.23;10.63;;;;;;;7.93;78.85;93134.25;513967;28;853;-48
2023/04/30 00:20:21;;;;;;;15.23;10.45;;;;;;;7.95;79.02;93137.22;515223;28;870;-48
2023/04/30 00:20:36;;;;;;;13.65;11.02;;;;;;;7.95;78.93;93140.69;516075;28;836;-47
2023/04/30 00:20:52;;;;;;;11.63;10.33;;;;;;;7.96;78.95;93131.19;515463;28;1576;-48
2023/04/30 00:21:07;;;;;;;11.68;9.95;;;;;;;7.97;78.55;93135.41;515383;28;894;-47
2023/04/30 00:21:23;;;;;;;12.67;10.40;;;;;;;7.98;78.77;93136.13;514135;28;774;-47
2023/04/30 00:21:38;;;;;;;11.87;9.73;;;;;;;7.97;78.71;93140.88;514009;28;878;-47
2023/04/30 00:21:53;;;;;;;10.43;8.95;;;;;;;7.98;78.62;93139.63;515168;28;1079;-48
2023/04/30 00:22:09;;;;;;;10.33;9.23;;;;;;;7.98;78.32;93136.88;515298;28;1143;-48
2023/04/30 00:22:24;;;;;;;13.10;9.77;;;;;;;7.98;78.09;93136.88;516071;28;848;-46
2023/04/30 00:22:40;;;;;;;13.40;9.70;;;;;;;7.97;78.01;93138.16;516048;28;1911;-47
2023/04/30 00:22:55;;;;;;;13.57;9.87;;;;;;;7.97;77.92;93131.94;516114;28;909;-47
2023/04/30 00:23:10;;;;;;;13.63;10.00;;;;;;;7.95;77.73;93137.94;516066;28;785;-47
2023/04/30 00:23:26;;;;;;;12.53;10.00;;;;;;;7.90;77.74;93138.84;515888;28;1080;-47
2023/04/30 00:23:41;;;;;;;14.73;10.50;;;;;;;7.80;77.68;93137.09;516083;28;836;-47
2023/04/30 00:23:59;;;;;;;15.77;11.13;;;;;;;7.68;77.57;93131.16;515168;28;1760;-48
2023/04/30 00:24:14;;;;;;;14.68;11.68;;;;;;;7.40;78.43;93123.59;515657;28;849;-47
2023/04/30 00:24:29;;;;;;;14.25;12.02;;;;;;;7.39;78.77;93133.09;515303;28;1683;-47
2023/04/30 00:24:45;;;;;;;14.80;12.17;;;;;;;7.30;79.29;93135.56;514264;28;1147;-47
2023/04/30 00:25:00;;;;;;;17.17;12.68;;;;;;;7.30;79.78;93139.06;514365;28;797;-47
2023/04/30 00:25:16;;;;;;;19.50;13.33;;;;;;;7.24;80.15;93127.47;513984;28;868;-47
2023/04/30 00:25:31;;;;;;;18.50;13.38;;;;;;;7.22;80.33;93135.50;514050;28;806;-49
2023/04/30 00:25:46;;;;;;;16.00;13.17;;;;;;;7.23;80.59;93139.75;514011;28;860;-48
2023/04/30 00:26:02;;;;;;;15.63;13.00;;;;;;;7.28;80.71;93127.88;513903;28;880;-48
2023/04/30 00:26:18;;;;;;;15.00;12.05;;;;;;;7.32;80.75;93133.75;514605;28;1069;-61
2023/04/30 00:26:33;;;;;;;16.53;11.67;;;;;;;7.37;80.58;93132.91;514868;28;1532;-59
2023/04/30 00:26:48;;;;;;;16.63;12.02;;;;;;;7.42;80.76;93136.78;514019;28;886;-59
2023/04/30 00:27:04;;;;;;;16.93;12.40;;;;;;;7.46;80.33;93132.44;514944;28;943;-59
2023/04/30 00:27:19;;;;;;;17.48;11.88;;;;;;;7.52;80.57;93135.03;515767;28;820;-59
2023/04/30 00:27:35;;;;;;;14.93;11.47;;;;;;;7.55;80.51;93136.72;514490;28;905;-59
2023/04/30 00:27:51;;;;;;;15.38;12.10;;;;;;;7.59;80.16;93140.63;515006;28;1084;-59
2023/04/30 00:28:06;;;;;;;16.00;12.53;;;;;;;7.61;79.88;93132.56;516010;28;789;-60
2023/04/30 00:28:21;;;;;;;15.88;12.10;;;;;;;7.62;79.63;93128.53;515955;28;963;-59
2023/04/30 00:28:37;;;;;;;16.40;12.20;;;;;;;7.67;79.68;93134.44;515505;28;770;-60
2023/04/30 00:28:52;;;;;;;15.63;12.00;;;;;;;7.64;79.49;93133.50;514137;28;791;-59
2023/04/30 00:29:07;;;;;;;15.00;11.70;;;;;;;7.53;79.22;93140.03;514008;28;775;-60
2023/04/30 00:29:23;;;;;;;14.97;12.03;;;;;;;7.51;79.26;93137.03;515333;28;1112;-60
2023/04/30 00:29:38;;;;;;;16.10;12.37;;;;;;;7.41;79.57;93133.31;516062;28;810;-60
2023/04/30 00:29:54;;;;;;;15.98;12.23;;;;;;;7.29;79.62;93110.13;516003;28;848;-60
2023/04/30 00:30:10;;;;;;;16.40;12.40;;;;;;;7.44;79.49;93137.00;516100;28;793;-60
2023/04/30 00:30:25;;;;;;;17.27;12.52;;;;;;;7.43;79.64;93132.75;515964;28;852;-60
2023/04/30 00:30:40;;;;;;;15.70;12.52;;;;;;;7.45;79.53;93138.47;516071;28;814;-60
2023/04/30 00:30:56;;;;;;;16.53;13.10;;;;;;;7.48;79.32;93140.13;515603;28;1162;-60
2023/04/30 00:31:11;;;;;;;16.10;13.10;;;;;;;7.51;79.29;93136.34;516131;28;817;-60
2023/04/30 00:31:27;;;;;;;17.27;13.13;;;;;;;7.52;79.19;93135.78;516016;28;832;-60
2023/04/30 00:31:42;;;;;;;19.53;13.13;;;;;;;7.54;78.75;93135.25;514590;28;789;-59
2023/04/30 00:31:57;;;;;;;18.92;12.43;;;;;;;7.56;78.55;93135.44;513996;28;846;-60
2023/04/30 00:32:13;;;;;;;18.17;12.67;;;;;;;7.56;78.47;93136.19;515171;28;1143;-47
2023/04/30 00:32:28;;;;;;;18.65;13.52;;;;;;;7.51;78.37;93137.03;513934;28;944;-48
2023/04/30 00:32:44;;;;;;;18.87;13.77;;;;;;;7.41;78.63;93135.31;514018;28;908;-47
2023/04/30 00:33:00;;;;;;;17.20;13.25;;;;;;;7.41;78.63;93138.06;514073;28;845;-47
2023/04/30 00:33:15;;;;;;;16.87;12.77;;;;;;;7.41;78.88;93135.31;513980;28;809;-47
2023/04/30 00:33:31;;;;;;;16.75;12.85;;;;;;;7.41;79.00;93135.31;515975;28;1540;-47
2023/04/30 00:33:46;;;;;;;15.90;13.47;;;;;;;7.40;79.00;93134.59;517511;28;856;-48
2023/04/30 00:34:01;;;;;;;18.35;14.52;;;;;;;7.42;78.99;93134.78;515988;28;864;-48
2023/04/30 00:34:17;;;;;;;18.33;14.07;;;;;;;7.42;79.06;93136.78;515985;28;778;-47
2023/04/30 00:34:32;;;;;;;17.17;13.80;;;;;;;7.43;79.22;93139.00;514088;28;1797;-47
2023/04/30 00:34:48;;;;;;;18.20;13.60;;;;;;;7.46;79.10;93135.19;513993;28;845;-47
2023/04/30 00:35:03;;;;;;;20.73;13.83;;;;;;;7.45;79.33;93128.22;515928;28;805;-49
2023/04/30 00:35:19;;;;;;;18.98;14.43;;;;;;;7.50;79.21;93138.34;515852;28;1084;-47
2023/04/30 00:35:34;;;;;;;17.08;13.95;;;;;;;7.52;79.36;93137.78;514196;28;852;-48
2023/04/30 00:35:50;;;;;;;16.67;13.00;;;;;;;7.46;79.30;93137.19;514105;28;813;-47
2023/04/30 00:36:06;;;;;;;16.17;12.45;;;;;;;7.48;78.87;93137.38;513925;28;899;-48
2023/04/30 00:36:21;;;;;;;15.37;12.43;;;;;;;7.49;79.08;93138.88;514039;28;871;-47
2023/04/30 00:36:37;;;;;;;14.25;12.27;;;;;;;7.44;78.67;93134.25;513990;28;855;-47
2023/04/30 00:36:52;;;;;;;13.63;11.87;;;;;;;7.41;78.71;93138.81;515152;28;1179;-47
2023/04/30 00:37:08;;;;;;;14.32;11.52;;;;;;;7.44;78.48;93137.00;514581;28;1118;-49
2023/04/30 00:37:23;;;;;;;14.73;11.43;;;;;;;7.46;78.57;93143.44;514042;28;773;-47
2023/04/30 00:37:38;;;;;;;15.30;11.82;;;;;;;7.46;78.36;93137.94;515056;28;1366;-48
2023/04/30 00:37:54;;;;;;;15.27;11.70;;;;;;;7.45;78.10;93141.94;514728;28;1425;-47
2023/04/30 00:38:09;;;;;;;15.13;11.13;;;;;;;7.40;77.80;93142.09;514979;28;853;-47
2023/04/30 00:38:24;;;;;;;15.45;11.38;;;;;;;7.34;77.66;93142.19;515662;28;1068;-48
2023/04/30 00:38:40;;;;;;;15.73;11.80;;;;;;;7.32;77.92;93136.50;515975;28;777;-47
2023/04/30 00:38:55;;;;;;;15.93;11.77;;;;;;;7.28;77.70;93141.59;515863;28;1670;-47
2023/04/30 00:39:11;;;;;;;14.07;11.35;;;;;;;7.29;77.99;93137.59;515885;28;841;-46
2023/04/30 00:39:26;;;;;;;15.38;11.32;;;;;;;7.29;77.70;93139.59;515913;28;844;-47
2023/04/30 00:39:42;;;;;;;16.57;11.67;;;;;;;7.24;77.87;93141.19;515670;28;872;-47
2023/04/30 00:39:57;;;;;;;14.03;11.77;;;;;;;7.20;77.73;93143.53;515678;28;1190;-47
2023/04/30 00:40:12;;;;;;;13.23;11.18;;;;;;;7.11;77.77;93141.25;516094;28;893;-48
2023/04/30 00:40:28;;;;;;;15.40;11.03;;;;;;;7.13;77.99;93149.69;515965;28;900;-49
2023/04/30 00:40:43;;;;;;;14.27;10.60;;;;;;;7.13;77.79;93135.97;515856;28;865;-47
2023/04/30 00:40:59;;;;;;;11.77;10.17;;;;;;;7.18;77.82;93140.59;515877;28;875;-47
2023/04/30 00:41:15;;;;;;;14.67;10.40;;;;;;;7.21;77.82;93145.00;515844;28;1159;-47
2023/04/30 00:41:31;;;;;;;14.30;9.70;;;;;;;7.14;77.53;93122.97;515920;28;802;-48
2023/04/30 00:41:46;;;;;;;11.60;9.60;;;;;;;7.30;77.39;93141.06;513757;28;876;-47
2023/04/30 00:42:02;;;;;;;12.05;9.50;;;;;;;7.32;77.30;93139.25;513834;28;934;-48
2023/04/30 00:42:17;;;;;;;12.27;9.53;;;;;;;7.36;77.00;93142.41;513876;28;796;-47
2023/04/30 00:42:32;;;;;;;12.73;9.75;;;;;;;7.39;77.06;93140.59;514269;28;1968;-47
2023/04/30 00:42:48;;;;;;;11.67;9.53;;;;;;;7.39;76.89;93144.09;515796;28;1222;-47
2023/04/30 00:43:03;;;;;;;10.23;8.93;;;;;;;7.41;76.65;93138.06;515972;28;855;-47
2023/04/30 00:43:19;;;;;;;10.73;9.07;;;;;;;7.41;76.68;93133.31;515932;28;848;-48
2023/04/30 00:43:34;;;;;;;12.57;9.77;;;;;;;7.45;76.53;93133.69;515835;28;770;-48
2023/04/30 00:43:49;;;;;;;13.07;10.67;;;;;;;7.46;76.44;93140.69;514817;28;868;-47
2023/04/30 00:44:05;;;;;;;12.75;10.48;;;;;;;7.50;76.38;93130.09;514367;28;1212;-47
2023/04/30 00:44:20;;;;;;;12.38;9.77;;;;;;;7.51;76.39;93137.03;517000;28;1118;-47
2023/04/30 00:44:36;;;;;;;11.63;9.90;;;;;;;7.51;76.33;93134.31;515986;28;936;-47
2023/04/30 00:44:51;;;;;;;17.13;10.57;;;;;;;7.54;76.21;93138.72;516011;28;947;-48
2023/04/30 00:45:07;;;;;;;22.73;11.13;;;;;;;7.54;76.33;93138.72;515961;28;857;-47
2023/04/30 00:45:22;;;;;;;18.52;11.25;;;;;;;7.52;76.41;93132.28;516033;28;934;-47
2023/04/30 00:45:38;;;;;;;15.47;11.57;;;;;;;7.52;76.49;93140.53;516068;28;769;-47
2023/04/30 00:45:53;;;;;;;16.23;11.10;;;;;;;7.52;76.49;93137.78;515620;28;1190;-47
2023/04/30 00:46:08;;;;;;;16.17;10.65;;;;;;;7.52;76.26;93127.53;515980;28;841;-47
2023/04/30 00:46:24;;;;;;;14.67;11.00;;;;;;;7.54;76.40;93130.50;515949;28;874;-47
2023/04/30 00:46:39;;;;;;;14.97;11.63;;;;;;;7.46;76.18;93115.97;516032;28;871;-47
2023/04/30 00:46:55;;;;;;;15.07;11.65;;;;;;;7.58;76.11;93133.63;516035;28;782;-48
2023/04/30 00:47:10;;;;;;;13.87;11.27;;;;;;;7.59;76.01;93129.63;516015;28;840;-47
2023/04/30 00:47:26;;;;;;;14.13;11.55;;;;;;;7.60;75.86;93125.59;515893;28;1096;-47
2023/04/30 00:47:41;;;;;;;17.23;11.87;;;;;;;7.62;75.74;93130.56;516025;28;866;-48
2023/04/30 00:47:56;;;;;;;16.57;11.80;;;;;;;7.62;75.75;93131.28;515929;28;904;-47
2023/04/30 00:48:12;;;;;;;14.75;11.93;;;;;;;7.62;76.00;93131.28;516014;28;916;-47
2023/04/30 00:48:27;;;;;;;16.10;11.67;;;;;;;7.59;75.84;93132.38;515945;28;880;-48
2023/04/30 00:48:43;;;;;;;15.40;11.50;;;;;;;7.56;76.20;93125.19;515454;28;874;-48
2023/04/30 00:49:01;;;;;;;13.60;11.03;;;;;;;7.48;76.16;93121.66;515882;28;1107;-48
2023/04/30 00:49:16;;;;;;;12.75;10.55;;;;;;;7.57;76.26;93137.66;515876;28;899;-47
2023/04/30 00:49:32;;;;;;;13.25;10.32;;;;;;;7.57;76.26;93129.44;515821;28;819;-48
2023/04/30 00:49:47;;;;;;;12.93;10.43;;;;;;;7.51;76.10;93114.34;513883;28;782;-46
2023/04/30 00:50:03;;;;;;;13.25;11.00;;;;;;;7.59;76.18;93135.13;513865;28;1537;-47
2023/04/30 00:50:18;;;;;;;14.50;11.47;;;;;;;7.60;76.00;93138.63;515065;28;1254;-47
2023/04/30 00:50:35;;;;;;;15.07;11.10;;;;;;;7.41;76.02;93108.59;512234;28;1207;-47
2023/04/30 00:50:51;;;;;;;17.75;11.90;;;;;;;7.57;76.32;93131.44;509888;29;865;-47
2023/04/30 00:51:06;;;;;;;17.90;12.40;;;;;;;7.55;76.31;93129.22;509872;29;825;-47
2023/04/30 00:51:22;;;;;;;16.58;12.63;;;;;;;7.54;76.12;93130.50;507913;29;809;-48
2023/04/30 00:51:40;;;;;;;16.42;12.73;;;;;;;7.56;76.14;93127.19;508426;29;1793;-47
2023/04/30 00:51:55;;;;;;;16.92;12.70;;;;;;;7.56;76.16;93133.44;510443;29;1048;-47
2023/04/30 00:52:10;;;;;;;18.37;13.00;;;;;;;7.57;75.81;93131.44;511838;29;893;-48
2023/04/30 00:52:26;;;;;;;21.40;13.15;;;;;;;7.57;75.94;93128.69;512604;28;802;-47
2023/04/30 00:52:42;;;;;;;24.73;14.40;;;;;;;7.52;75.92;93124.06;514490;28;876;-47
2023/04/30 00:52:58;;;;;;;24.98;16.83;;;;;;;7.49;75.79;93134.09;515802;28;801;-47
2023/04/30 00:53:13;;;;;;;27.48;18.10;;;;;;;7.45;75.79;93130.97;515884;28;953;-48
2023/04/30 00:53:30;;;;;;;34.28;19.83;;;;;;;7.44;75.60;93134.25;515851;28;1013;-47
2023/04/30 00:53:45;;;;;;;33.67;20.85;;;;;;;7.25;75.48;93106.25;515408;28;848;-47
2023/04/30 00:54:02;;;;;;;34.42;20.42;;;;;;;7.32;75.31;93119.31;513932;28;1633;-47
2023/04/30 00:54:19;;;;;;;34.72;20.42;;;;;;;7.28;75.53;93136.13;513970;28;852;-47
2023/04/30 00:54:35;;;;;;;35.25;21.17;;;;;;;7.22;75.63;93134.75;513953;28;891;-47
2023/04/30 00:54:52;;;;;;;35.40;22.45;;;;;;;7.12;75.70;93139.25;513843;28;919;-47
2023/04/30 00:55:09;;;;;;;36.33;23.77;;;;;;;7.10;75.89;93139.06;511867;29;833;-47
2023/04/30 00:55:25;;;;;;;37.97;23.83;;;;;;;7.04;75.77;93136.41;511789;29;889;-48
2023/04/30 00:55:41;;;;;;;38.20;23.63;;;;;;;7.03;76.01;93132.22;511929;29;880;-47
2023/04/30 00:55:57;;;;;;;40.57;24.10;;;;;;;7.07;76.01;93124.38;515430;28;1224;-47
2023/04/30 00:56:15;;;;;;;38.90;23.33;;;;;;;7.10;76.08;93120.56;512097;28;1554;-47
2023/04/30 00:56:31;;;;;;;37.20;22.92;;;;;;;7.13;75.94;93126.97;511740;29;1081;-47
2023/04/30 00:56:47;;;;;;;36.30;22.23;;;;;;;7.15;75.85;93125.19;513228;28;895;-47
2023/04/30 00:57:04;;;;;;;34.03;20.93;;;;;;;7.15;75.70;93124.44;513846;28;829;-46
2023/04/30 00:57:20;;;;;;;32.38;20.35;;;;;;;7.15;75.53;93121.69;513781;28;808;-47
2023/04/30 00:57:37;;;;;;;32.20;19.88;;;;;;;7.14;75.58;93129.22;513723;28;865;-47
2023/04/30 00:57:53;;;;;;;31.45;19.35;;;;;;;7.11;75.50;93135.75;514984;28;1365;-47
2023/04/30 00:58:09;;;;;;;32.50;20.30;;;;;;;7.12;75.50;93129.00;515656;28;1004;-47
2023/04/30 00:58:24;;;;;;;32.70;20.57;;;;;;;7.13;75.58;93124.25;515762;28;785;-47
2023/04/30 00:58:40;;;;;;;30.65;19.73;;;;;;;6.99;75.69;93118.09;515835;28;841;-47
2023/04/30 00:58:56;;;;;;;29.93;20.00;;;;;;;7.01;75.83;93131.25;514901;28;1664;-47
2023/04/30 00:59:12;;;;;;;32.20;20.52;;;;;;;6.98;76.17;93135.06;515165;28;930;-47
2023/04/30 00:59:29;;;;;;;34.42;20.75;;;;;;;6.96;76.33;93132.13;515806;28;1710;-47
2023/04/30 00:59:45;;;;;;;31.92;20.42;;;;;;;6.87;76.34;93131.31;515785;28;1186;-48
2023/04/30 01:00:01;;;;;;;29.35;20.25;;;;;;;6.78;76.87;93131.00;515759;28;809;-48
2023/04/30 01:00:17;;;;;;;30.52;19.63;;;;;;;6.77;76.98;93130.28;513712;28;1236;-46
2023/04/30 01:00:33;;;;;;;32.53;18.70;;;;;;;6.68;77.32;93127.25;513837;28;818;-47
2023/04/30 01:00:49;;;;;;;31.27;17.85;;;;;;;6.57;77.55;93127.47;513745;28;862;-47
2023/04/30 01:01:05;;;;;;;28.48;18.00;;;;;;;6.56;77.66;93126.72;511717;29;1151;-48
2023/04/30 01:01:21;;;;;;;29.38;19.35;;;;;;;6.60;77.67;93129.91;512721;28;955;-47
2023/04/30 01:01:38;;;;;;;32.17;19.83;;;;;;;6.66;77.79;93127.03;513884;28;787;-47
2023/04/30 01:01:53;;;;;;;30.98;19.83;;;;;;;6.71;77.72;93124.16;513206;28;1693;-47
2023/04/30 01:02:09;;;;;;;28.83;19.50;;;;;;;6.69;77.61;93128.72;511872;28;874;-47
2023/04/30 01:02:25;;;;;;;27.65;18.88;;;;;;;6.67;77.45;93129.25;513475;28;926;-47
2023/04/30 01:02:40;;;;;;;28.33;18.93;;;;;;;6.64;77.37;93126.84;513418;28;1979;-47
2023/04/30 01:02:56;;;;;;;29.50;18.90;;;;;;;6.53;77.54;93130.56;513912;28;907;-47
2023/04/30 01:03:13;;;;;;;28.67;18.48;;;;;;;6.39;78.09;93125.63;513921;28;818;-47
2023/04/30 01:03:28;;;;;;;29.95;19.27;;;;;;;6.40;78.13;93129.81;513991;28;945;-47
2023/04/30 01:03:43;;;;;;;30.77;19.47;;;;;;;6.42;78.33;93130.03;514042;28;862;-47
2023/04/30 01:03:59;;;;;;;29.65;18.58;;;;;;;6.43;78.60;93131.53;513733;28;880;-47
2023/04/30 01:04:15;;;;;;;30.48;18.88;;;;;;;6.46;78.64;93124.97;515657;28;946;-48
2023/04/30 01:04:31;;;;;;;28.80;17.90;;;;;;;6.50;78.53;93120.63;513807;28;757;-48
2023/04/30 01:04:47;;;;;;;27.40;16.75;;;;;;;6.53;78.49;93127.81;513769;28;869;-47
2023/04/30 01:05:03;;;;;;;27.43;17.57;;;;;;;6.59;78.52;93127.69;513853;28;793;-48
2023/04/30 01:05:18;;;;;;;29.40;17.98;;;;;;;6.56;78.43;93112.31;513763;28;986;-48
2023/04/30 01:05:34;;;;;;;29.15;17.77;;;;;;;6.61;78.32;93120.41;513818;28;1143;-48
2023/04/30 01:05:49;;;;;;;27.37;18.03;;;;;;;6.51;78.13;93126.84;514489;28;837;-47
2023/04/30 01:06:05;;;;;;;26.08;17.48;;;;;;;6.40;78.40;93132.56;515654;28;896;-47
2023/04/30 01:06:20;;;;;;;25.93;17.10;;;;;;;6.36;78.41;93126.66;514517;28;1783;-48
2023/04/30 01:06:35;;;;;;;27.07;17.43;;;;;;;6.39;78.55;93125.63;515592;28;773;-47
2023/04/30 01:06:51;;;;;;;25.33;17.05;;;;;;;6.32;78.56;93112.53;515979;28;931;-48
2023/04/30 01:07:06;;;;;;;26.27;17.60;;;;;;;6.49;78.66;93134.88;515897;28;1182;-47
2023/04/30 01:07:23;;;;;;;27.92;17.90;;;;;;;6.51;78.56;93129.59;516039;28;824;-48
2023/04/30 01:07:43;;;;;;;27.25;17.63;;;;;;;6.54;78.79;93123.06;516020;28;867;-46
2023/04/30 01:07:59;;;;;;;26.10;18.10;;;;;;;6.57;78.77;93124.72;515835;28;956;-47
2023/04/30 01:08:14;;;;;;;29.73;18.90;;;;;;;6.56;78.59;93129.47;515949;28;890;-47
2023/04/30 01:08:30;;;;;;;31.77;18.65;;;;;;;6.52;78.65;93126.31;515796;28;2292;-47
2023/04/30 01:08:47;;;;;;;29.42;18.35;;;;;;;6.55;78.49;93130.00;513757;28;893;-47
2023/04/30 01:09:02;;;;;;;28.42;18.15;;;;;;;6.55;78.56;93130.00;514661;28;1777;-47
2023/04/30 01:09:18;;;;;;;27.30;17.80;;;;;;;6.56;78.32;93132.22;513715;28;790;-48
2023/04/30 01:09:33;;;;;;;26.37;17.17;;;;;;;6.56;78.35;93126.00;513872;28;826;-47
2023/04/30 01:09:49;;;;;;;26.10;16.73;;;;;;;6.62;78.38;93132.13;513852;28;876;-48
2023/04/30 01:10:05;;;;;;;23.50;16.50;;;;;;;6.63;78.09;93131.56;513597;28;965;-48
2023/04/30 01:10:27;;;;;;;22.77;16.10;;;;;;;6.64;78.16;93132.31;513803;28;870;-48
2023/04/30 01:10:51;;;;;;;24.02;15.95;;;;;;;6.66;77.88;93129.78;513257;28;908;-48
2023/04/30 01:11:12;;;;;;;26.23;16.38;;;;;;;6.60;77.63;93132.66;513626;28;1034;-48
2023/04/30 01:11:32;;;;;;;24.98;17.02;;;;;;;6.57;77.79;93135.69;515834;28;884;-47
2023/04/30 01:12:14;;;;;;;26.52;16.73;;;;;;;6.44;78.11;93136.47;511655;29;1151;-47
2023/04/30 01:13:18;;;;;;;25.42;16.70;;;;;;;6.15;79.17;93137.53;511420;29;1160;-47
2023/04/30 01:13:40;;;;;;;24.58;17.05;;;;;;;6.20;79.29;93133.22;509555;29;1512;-48
2023/04/30 01:14:07;;;;;;;23.80;16.95;;;;;;;6.20;79.46;93133.94;509440;29;841;-49
2023/04/30 01:15:10;;;;;;;24.30;16.92;;;;;;;6.31;79.47;93136.47;511553;29;920;-48
2023/04/30 01:15:28;;;;;;;24.38;15.63;;;;;;;6.46;78.66;93138.66;506085;29;1193;-48
2023/04/30 01:16:12;;;;;;;25.65;16.65;;;;;;;6.53;78.32;93133.28;509210;29;1226;-47
2023/04/30 01:16:32;;;;;;;22.17;15.80;;;;;;;6.55;78.18;93135.50;508897;29;1274;-49
2023/04/30 01:16:57;;;;;;;22.98;15.63;;;;;;;6.54;78.12;93142.97;509201;29;1305;-48
2023/04/30 01:17:44;;;;;;;23.17;15.93;;;;;;;6.58;77.95;93137.19;509516;29;1118;-48
2023/04/30 01:18:12;;;;;;;22.35;15.70;;;;;;;6.53;77.51;93118.84;507566;29;846;-48
2023/04/30 01:18:36;;;;;;;21.80;14.55;;;;;;;6.42;77.72;93132.78;509378;29;1357;-48
2023/04/30 01:18:57;;;;;;;25.20;15.82;;;;;;;6.29;78.48;93139.00;511437;29;1640;-48
2023/04/30 01:19:40;;;;;;;22.77;15.40;;;;;;;6.25;78.98;93141.34;511225;29;1012;-48
2023/04/30 01:19:56;;;;;;;23.20;14.63;;;;;;;6.27;79.09;93130.56;509679;29;916;-48
2023/04/30 01:20:12;;;;;;;22.27;14.85;;;;;;;6.25;79.56;93140.59;507815;29;956;-48